sensor_id;sensor_type;location;lat;lon;timestamp;P1;durP1;ratioP1;P2;durP2;ratioP2
56285;SDS011;42191;47.562;9.686;2022-09-09T00:04:30;29.48;;;27.67;;
56285;SDS011;42191;47.562;9.686;2022-09-09T00:09:28;31.02;;;29.02;;
56285;SDS011;42191;47.562;9.686;2022-09-09T00:12:10;30.67;;;28.67;;
56285;SDS011;42191;47.562;9.686;2022-09-09T00:20:13;31.40;;;29.42;;
56285;SDS011;42191;47.562;9.686;2022-09-09T00:22:54;32.30;;;30.30;;
56285;SDS011;42191;47.562;9.686;2022-09-09T00:25:42;30.65;;;28.75;;
56285;SDS011;42191;47.562;9.686;2022-09-09T00:28:20;30.80;;;28.90;;
56285;SDS011;42191;47.562;9.686;2022-09-09T00:30:49;30.08;;;28.15;;
56285;SDS011;42191;47.562;9.686;2022-09-09T00:33:17;31.30;;;29.13;;
56285;SDS011;42191;47.562;9.686;2022-09-09T00:35:48;30.45;;;28.45;;
56285;SDS011;42191;47.562;9.686;2022-09-09T00:38:48;30.55;;;28.75;;
56285;SDS011;42191;47.562;9.686;2022-09-09T00:44:31;31.85;;;29.92;;
56285;SDS011;42191;47.562;9.686;2022-09-09T00:47:12;29.75;;;27.50;;
56285;SDS011;42191;47.562;9.686;2022-09-09T00:55:43;30.25;;;28.35;;
56285;SDS011;42191;47.562;9.686;2022-09-09T00:58:47;30.67;;;28.77;;
56285;SDS011;42191;47.562;9.686;2022-09-09T01:01:19;30.83;;;28.98;;
56285;SDS011;42191;47.562;9.686;2022-09-09T01:06:16;29.75;;;27.95;;
56285;SDS011;42191;47.562;9.686;2022-09-09T01:20:25;31.08;;;28.92;;
56285;SDS011;42191;47.562;9.686;2022-09-09T01:28:28;31.20;;;29.20;;
56285;SDS011;42191;47.562;9.686;2022-09-09T01:30:56;32.30;;;30.20;;
56285;SDS011;42191;47.562;9.686;2022-09-09T01:33:23;29.85;;;28.02;;
56285;SDS011;42191;47.562;9.686;2022-09-09T01:38:34;30.52;;;28.55;;
56285;SDS011;42191;47.562;9.686;2022-09-09T01:41:01;32.75;;;30.75;;
56285;SDS011;42191;47.562;9.686;2022-09-09T01:43:28;31.98;;;29.95;;
56285;SDS011;42191;47.562;9.686;2022-09-09T01:45:55;30.08;;;28.05;;
56285;SDS011;42191;47.562;9.686;2022-09-09T01:48:25;32.55;;;30.38;;
56285;SDS011;42191;47.562;9.686;2022-09-09T01:50:51;31.85;;;29.95;;
56285;SDS011;42191;47.562;9.686;2022-09-09T01:53:18;30.42;;;28.63;;
56285;SDS011;42191;47.562;9.686;2022-09-09T02:01:32;31.55;;;29.65;;
56285;SDS011;42191;47.562;9.686;2022-09-09T02:04:20;31.75;;;29.85;;
56285;SDS011;42191;47.562;9.686;2022-09-09T02:07:02;30.73;;;28.90;;
56285;SDS011;42191;47.562;9.686;2022-09-09T02:09:39;31.40;;;29.52;;
56285;SDS011;42191;47.562;9.686;2022-09-09T02:12:11;32.28;;;30.23;;
56285;SDS011;42191;47.562;9.686;2022-09-09T02:14:44;31.55;;;29.65;;
56285;SDS011;42191;47.562;9.686;2022-09-09T02:17:17;31.50;;;29.52;;
56285;SDS011;42191;47.562;9.686;2022-09-09T02:19:49;29.15;;;27.33;;
56285;SDS011;42191;47.562;9.686;2022-09-09T02:22:23;29.92;;;28.10;;
56285;SDS011;42191;47.562;9.686;2022-09-09T02:24:51;31.83;;;29.65;;
56285;SDS011;42191;47.562;9.686;2022-09-09T02:27:19;32.30;;;30.25;;
56285;SDS011;42191;47.562;9.686;2022-09-09T02:29:47;30.23;;;28.42;;
56285;SDS011;42191;47.562;9.686;2022-09-09T02:32:16;30.27;;;28.48;;
56285;SDS011;42191;47.562;9.686;2022-09-09T02:34:45;31.98;;;29.88;;
56285;SDS011;42191;47.562;9.686;2022-09-09T02:37:15;31.35;;;29.25;;
56285;SDS011;42191;47.562;9.686;2022-09-09T02:39:44;32.05;;;30.08;;
56285;SDS011;42191;47.562;9.686;2022-09-09T02:42:10;32.55;;;30.48;;
56285;SDS011;42191;47.562;9.686;2022-09-09T02:44:36;31.70;;;29.70;;
56285;SDS011;42191;47.562;9.686;2022-09-09T02:47:15;31.10;;;29.20;;
56285;SDS011;42191;47.562;9.686;2022-09-09T02:52:38;30.70;;;28.80;;
56285;SDS011;42191;47.562;9.686;2022-09-09T02:55:57;30.65;;;28.85;;
56285;SDS011;42191;47.562;9.686;2022-09-09T02:58:19;31.75;;;29.75;;
56285;SDS011;42191;47.562;9.686;2022-09-09T03:00:46;29.98;;;28.17;;
56285;SDS011;42191;47.562;9.686;2022-09-09T03:03:14;29.75;;;27.95;;
56285;SDS011;42191;47.562;9.686;2022-09-09T03:05:42;30.83;;;28.92;;
56285;SDS011;42191;47.562;9.686;2022-09-09T03:08:09;31.95;;;30.02;;
56285;SDS011;42191;47.562;9.686;2022-09-09T03:10:37;32.42;;;30.45;;
56285;SDS011;42191;47.562;9.686;2022-09-09T03:13:04;31.02;;;28.90;;
56285;SDS011;42191;47.562;9.686;2022-09-09T03:15:34;31.25;;;29.30;;
56285;SDS011;42191;47.562;9.686;2022-09-09T03:18:00;31.27;;;29.38;;
56285;SDS011;42191;47.562;9.686;2022-09-09T03:20:27;31.75;;;29.85;;
56285;SDS011;42191;47.562;9.686;2022-09-09T03:22:54;32.35;;;30.13;;
56285;SDS011;42191;47.562;9.686;2022-09-09T03:25:21;31.88;;;29.90;;
56285;SDS011;42191;47.562;9.686;2022-09-09T03:27:49;31.58;;;29.48;;
56285;SDS011;42191;47.562;9.686;2022-09-09T03:30:19;31.83;;;29.67;;
56285;SDS011;42191;47.562;9.686;2022-09-09T03:32:52;29.48;;;27.58;;
56285;SDS011;42191;47.562;9.686;2022-09-09T03:35:18;29.02;;;27.10;;
56285;SDS011;42191;47.562;9.686;2022-09-09T03:37:44;32.13;;;29.67;;
56285;SDS011;42191;47.562;9.686;2022-09-09T03:40:11;32.97;;;30.98;;
56285;SDS011;42191;47.562;9.686;2022-09-09T03:42:38;33.42;;;31.38;;
56285;SDS011;42191;47.562;9.686;2022-09-09T03:45:05;29.85;;;28.05;;
56285;SDS011;42191;47.562;9.686;2022-09-09T03:47:33;30.83;;;28.85;;
56285;SDS011;42191;47.562;9.686;2022-09-09T03:50:00;31.13;;;29.02;;
56285;SDS011;42191;47.562;9.686;2022-09-09T03:52:26;30.30;;;28.40;;
56285;SDS011;42191;47.562;9.686;2022-09-09T03:54:53;29.33;;;27.63;;
56285;SDS011;42191;47.562;9.686;2022-09-09T03:57:19;30.67;;;28.77;;
56285;SDS011;42191;47.562;9.686;2022-09-09T03:59:46;29.88;;;28.08;;
56285;SDS011;42191;47.562;9.686;2022-09-09T04:02:12;30.23;;;28.33;;
56285;SDS011;42191;47.562;9.686;2022-09-09T04:04:39;30.90;;;29.00;;
56285;SDS011;42191;47.562;9.686;2022-09-09T04:07:05;30.83;;;28.92;;
56285;SDS011;42191;47.562;9.686;2022-09-09T04:09:32;29.77;;;27.98;;
56285;SDS011;42191;47.562;9.686;2022-09-09T04:11:58;29.77;;;27.83;;
56285;SDS011;42191;47.562;9.686;2022-09-09T04:14:27;30.92;;;28.95;;
56285;SDS011;42191;47.562;9.686;2022-09-09T04:16:53;30.80;;;28.90;;
56285;SDS011;42191;47.562;9.686;2022-09-09T04:19:21;30.38;;;28.45;;
56285;SDS011;42191;47.562;9.686;2022-09-09T04:21:47;30.40;;;28.40;;
56285;SDS011;42191;47.562;9.686;2022-09-09T04:24:16;30.95;;;28.38;;
56285;SDS011;42191;47.562;9.686;2022-09-09T04:26:42;31.75;;;29.75;;
56285;SDS011;42191;47.562;9.686;2022-09-09T04:29:10;30.00;;;28.20;;
56285;SDS011;42191;47.562;9.686;2022-09-09T04:31:36;31.08;;;29.17;;
56285;SDS011;42191;47.562;9.686;2022-09-09T04:34:06;29.80;;;27.83;;
56285;SDS011;42191;47.562;9.686;2022-09-09T04:36:35;29.08;;;27.27;;
56285;SDS011;42191;47.562;9.686;2022-09-09T04:39:02;30.90;;;29.00;;
56285;SDS011;42191;47.562;9.686;2022-09-09T04:41:28;29.38;;;27.58;;
56285;SDS011;42191;47.562;9.686;2022-09-09T04:43:56;30.45;;;28.38;;
56285;SDS011;42191;47.562;9.686;2022-09-09T04:46:22;31.80;;;29.80;;
56285;SDS011;42191;47.562;9.686;2022-09-09T04:48:49;29.13;;;27.33;;
56285;SDS011;42191;47.562;9.686;2022-09-09T04:51:16;31.23;;;29.08;;
56285;SDS011;42191;47.562;9.686;2022-09-09T04:53:42;31.23;;;29.17;;
56285;SDS011;42191;47.562;9.686;2022-09-09T04:56:12;30.83;;;28.98;;
56285;SDS011;42191;47.562;9.686;2022-09-09T04:58:40;31.90;;;29.60;;
56285;SDS011;42191;47.562;9.686;2022-09-09T05:01:29;31.23;;;29.33;;
56285;SDS011;42191;47.562;9.686;2022-09-09T05:03:54;29.98;;;27.98;;
56285;SDS011;42191;47.562;9.686;2022-09-09T05:06:21;31.17;;;29.27;;
56285;SDS011;42191;47.562;9.686;2022-09-09T05:08:47;30.48;;;28.42;;
56285;SDS011;42191;47.562;9.686;2022-09-09T05:13:41;31.27;;;29.38;;
56285;SDS011;42191;47.562;9.686;2022-09-09T05:16:09;30.95;;;29.00;;
56285;SDS011;42191;47.562;9.686;2022-09-09T05:18:36;31.02;;;29.13;;
56285;SDS011;42191;47.562;9.686;2022-09-09T05:21:03;30.45;;;28.65;;
56285;SDS011;42191;47.562;9.686;2022-09-09T05:23:29;29.60;;;27.83;;
56285;SDS011;42191;47.562;9.686;2022-09-09T05:25:56;31.00;;;29.20;;
56285;SDS011;42191;47.562;9.686;2022-09-09T05:28:24;30.85;;;28.95;;
56285;SDS011;42191;47.562;9.686;2022-09-09T05:30:57;32.13;;;29.92;;
56285;SDS011;42191;47.562;9.686;2022-09-09T05:33:25;29.70;;;27.75;;
56285;SDS011;42191;47.562;9.686;2022-09-09T05:36:02;31.80;;;29.80;;
56285;SDS011;42191;47.562;9.686;2022-09-09T05:38:30;32.40;;;30.40;;
56285;SDS011;42191;47.562;9.686;2022-09-09T05:40:57;30.17;;;28.27;;
56285;SDS011;42191;47.562;9.686;2022-09-09T05:43:24;29.80;;;28.00;;
56285;SDS011;42191;47.562;9.686;2022-09-09T05:46:01;29.05;;;27.25;;
56285;SDS011;42191;47.562;9.686;2022-09-09T05:48:33;31.33;;;29.42;;
56285;SDS011;42191;47.562;9.686;2022-09-09T05:51:00;31.17;;;29.27;;
56285;SDS011;42191;47.562;9.686;2022-09-09T05:53:27;30.63;;;28.73;;
56285;SDS011;42191;47.562;9.686;2022-09-09T05:56:04;29.63;;;27.73;;
56285;SDS011;42191;47.562;9.686;2022-09-09T05:58:39;32.20;;;30.10;;
56285;SDS011;42191;47.562;9.686;2022-09-09T06:03:36;30.35;;;28.40;;
56285;SDS011;42191;47.562;9.686;2022-09-09T06:06:04;29.27;;;27.45;;
56285;SDS011;42191;47.562;9.686;2022-09-09T06:08:33;31.40;;;29.40;;
56285;SDS011;42191;47.562;9.686;2022-09-09T06:11:12;31.67;;;29.63;;
56285;SDS011;42191;47.562;9.686;2022-09-09T06:13:45;29.60;;;27.55;;
56285;SDS011;42191;47.562;9.686;2022-09-09T06:16:14;28.48;;;26.67;;
56285;SDS011;42191;47.562;9.686;2022-09-09T06:18:41;31.30;;;29.35;;
56285;SDS011;42191;47.562;9.686;2022-09-09T06:21:15;30.55;;;28.65;;
56285;SDS011;42191;47.562;9.686;2022-09-09T06:23:46;29.30;;;27.50;;
56285;SDS011;42191;47.562;9.686;2022-09-09T06:26:14;29.38;;;27.58;;
56285;SDS011;42191;47.562;9.686;2022-09-09T06:28:57;30.08;;;28.20;;
56285;SDS011;42191;47.562;9.686;2022-09-09T06:31:25;30.25;;;28.25;;
56285;SDS011;42191;47.562;9.686;2022-09-09T06:33:55;29.45;;;27.65;;
56285;SDS011;42191;47.562;9.686;2022-09-09T06:36:23;29.70;;;27.90;;
56285;SDS011;42191;47.562;9.686;2022-09-09T06:38:51;28.52;;;26.70;;
56285;SDS011;42191;47.562;9.686;2022-09-09T06:41:18;29.20;;;27.40;;
56285;SDS011;42191;47.562;9.686;2022-09-09T06:43:46;29.08;;;27.35;;
56285;SDS011;42191;47.562;9.686;2022-09-09T06:46:17;28.88;;;27.08;;
56285;SDS011;42191;47.562;9.686;2022-09-09T06:48:45;27.58;;;25.83;;
56285;SDS011;42191;47.562;9.686;2022-09-09T06:53:42;29.80;;;27.85;;
56285;SDS011;42191;47.562;9.686;2022-09-09T06:58:36;30.10;;;28.30;;
56285;SDS011;42191;47.562;9.686;2022-09-09T07:01:08;30.17;;;27.92;;
56285;SDS011;42191;47.562;9.686;2022-09-09T07:03:37;30.40;;;28.45;;
56285;SDS011;42191;47.562;9.686;2022-09-09T07:06:04;29.23;;;27.42;;
56285;SDS011;42191;47.562;9.686;2022-09-09T07:08:32;28.95;;;27.13;;
56285;SDS011;42191;47.562;9.686;2022-09-09T07:11:05;29.13;;;27.23;;
56285;SDS011;42191;47.562;9.686;2022-09-09T07:13:33;29.02;;;27.23;;
56285;SDS011;42191;47.562;9.686;2022-09-09T07:16:06;27.60;;;25.77;;
56285;SDS011;42191;47.562;9.686;2022-09-09T07:18:33;31.35;;;29.35;;
56285;SDS011;42191;47.562;9.686;2022-09-09T07:20:59;30.10;;;28.23;;
56285;SDS011;42191;47.562;9.686;2022-09-09T07:23:27;31.60;;;29.40;;
56285;SDS011;42191;47.562;9.686;2022-09-09T07:25:54;29.88;;;28.05;;
56285;SDS011;42191;47.562;9.686;2022-09-09T07:28:20;30.58;;;28.63;;
56285;SDS011;42191;47.562;9.686;2022-09-09T07:30:57;28.48;;;26.73;;
56285;SDS011;42191;47.562;9.686;2022-09-09T07:33:28;30.17;;;28.05;;
56285;SDS011;42191;47.562;9.686;2022-09-09T07:36:05;29.13;;;27.33;;
56285;SDS011;42191;47.562;9.686;2022-09-09T07:38:40;31.10;;;29.15;;
56285;SDS011;42191;47.562;9.686;2022-09-09T07:41:11;29.20;;;27.50;;
56285;SDS011;42191;47.562;9.686;2022-09-09T07:43:43;29.77;;;27.88;;
56285;SDS011;42191;47.562;9.686;2022-09-09T07:46:11;29.77;;;27.85;;
56285;SDS011;42191;47.562;9.686;2022-09-09T07:48:38;29.42;;;27.42;;
56285;SDS011;42191;47.562;9.686;2022-09-09T07:51:10;28.80;;;26.90;;
56285;SDS011;42191;47.562;9.686;2022-09-09T07:53:45;29.55;;;27.52;;
56285;SDS011;42191;47.562;9.686;2022-09-09T07:56:13;28.95;;;27.05;;
56285;SDS011;42191;47.562;9.686;2022-09-09T07:58:41;28.67;;;26.88;;
56285;SDS011;42191;47.562;9.686;2022-09-09T08:01:12;29.25;;;27.42;;
56285;SDS011;42191;47.562;9.686;2022-09-09T08:03:47;27.83;;;26.17;;
56285;SDS011;42191;47.562;9.686;2022-09-09T08:06:24;29.10;;;27.13;;
56285;SDS011;42191;47.562;9.686;2022-09-09T08:08:51;29.90;;;28.10;;
56285;SDS011;42191;47.562;9.686;2022-09-09T08:11:20;29.02;;;27.33;;
56285;SDS011;42191;47.562;9.686;2022-09-09T08:13:48;27.67;;;26.05;;
56285;SDS011;42191;47.562;9.686;2022-09-09T08:16:17;29.38;;;27.60;;
56285;SDS011;42191;47.562;9.686;2022-09-09T08:18:48;30.02;;;28.23;;
56285;SDS011;42191;47.562;9.686;2022-09-09T08:21:16;29.38;;;27.48;;
56285;SDS011;42191;47.562;9.686;2022-09-09T08:23:52;29.92;;;28.13;;
56285;SDS011;42191;47.562;9.686;2022-09-09T08:26:20;31.08;;;28.98;;
56285;SDS011;42191;47.562;9.686;2022-09-09T08:28:49;29.23;;;27.50;;
56285;SDS011;42191;47.562;9.686;2022-09-09T08:34:19;29.55;;;27.67;;
56285;SDS011;42191;47.562;9.686;2022-09-09T08:36:46;30.45;;;28.55;;
56285;SDS011;42191;47.562;9.686;2022-09-09T08:39:14;28.13;;;26.42;;
56285;SDS011;42191;47.562;9.686;2022-09-09T08:42:00;28.63;;;26.83;;
56285;SDS011;42191;47.562;9.686;2022-09-09T08:52:37;29.13;;;27.42;;
56285;SDS011;42191;47.562;9.686;2022-09-09T08:56:04;28.75;;;27.02;;
56285;SDS011;42191;47.562;9.686;2022-09-09T08:58:23;28.17;;;26.35;;
56285;SDS011;42191;47.562;9.686;2022-09-09T09:03:56;29.55;;;27.65;;
56285;SDS011;42191;47.562;9.686;2022-09-09T09:09:32;29.77;;;27.67;;
56285;SDS011;42191;47.562;9.686;2022-09-09T09:12:01;28.40;;;26.55;;
56285;SDS011;42191;47.562;9.686;2022-09-09T09:14:34;29.45;;;27.65;;
56285;SDS011;42191;47.562;9.686;2022-09-09T09:17:06;28.40;;;26.60;;
56285;SDS011;42191;47.562;9.686;2022-09-09T09:19:38;29.75;;;27.90;;
56285;SDS011;42191;47.562;9.686;2022-09-09T09:30:01;28.75;;;26.95;;
56285;SDS011;42191;47.562;9.686;2022-09-09T09:32:37;27.33;;;25.55;;
56285;SDS011;42191;47.562;9.686;2022-09-09T09:35:10;27.25;;;25.65;;
56285;SDS011;42191;47.562;9.686;2022-09-09T09:37:39;27.45;;;25.75;;
56285;SDS011;42191;47.562;9.686;2022-09-09T09:40:12;26.52;;;24.92;;
56285;SDS011;42191;47.562;9.686;2022-09-09T09:45:33;28.42;;;26.63;;
56285;SDS011;42191;47.562;9.686;2022-09-09T09:48:10;28.25;;;26.55;;
56285;SDS011;42191;47.562;9.686;2022-09-09T09:50:51;28.70;;;26.90;;
56285;SDS011;42191;47.562;9.686;2022-09-09T09:53:27;27.83;;;26.05;;
56285;SDS011;42191;47.562;9.686;2022-09-09T09:56:00;26.15;;;24.45;;
56285;SDS011;42191;47.562;9.686;2022-09-09T09:58:33;28.40;;;26.50;;
56285;SDS011;42191;47.562;9.686;2022-09-09T10:04:02;28.60;;;26.80;;
56285;SDS011;42191;47.562;9.686;2022-09-09T10:06:38;27.13;;;25.48;;
56285;SDS011;42191;47.562;9.686;2022-09-09T10:09:20;27.55;;;25.95;;
56285;SDS011;42191;47.562;9.686;2022-09-09T10:12:17;27.85;;;26.05;;
56285;SDS011;42191;47.562;9.686;2022-09-09T10:14:44;28.50;;;26.50;;
56285;SDS011;42191;47.562;9.686;2022-09-09T10:17:33;27.73;;;26.02;;
56285;SDS011;42191;47.562;9.686;2022-09-09T10:31:34;28.42;;;26.73;;
56285;SDS011;42191;47.562;9.686;2022-09-09T10:36:44;25.92;;;24.33;;
56285;SDS011;42191;47.562;9.686;2022-09-09T10:39:32;28.23;;;26.50;;
56285;SDS011;42191;47.562;9.686;2022-09-09T10:42:14;28.50;;;26.80;;
56285;SDS011;42191;47.562;9.686;2022-09-09T10:52:56;28.45;;;26.67;;
56285;SDS011;42191;47.562;9.686;2022-09-09T10:55:41;29.00;;;27.15;;
56285;SDS011;42191;47.562;9.686;2022-09-09T10:58:12;28.38;;;26.67;;
56285;SDS011;42191;47.562;9.686;2022-09-09T11:00:48;28.98;;;27.08;;
56285;SDS011;42191;47.562;9.686;2022-09-09T11:03:21;29.55;;;27.65;;
56285;SDS011;42191;47.562;9.686;2022-09-09T11:06:28;28.80;;;26.98;;
56285;SDS011;42191;47.562;9.686;2022-09-09T11:08:49;25.92;;;24.38;;
56285;SDS011;42191;47.562;9.686;2022-09-09T11:11:25;28.35;;;26.58;;
56285;SDS011;42191;47.562;9.686;2022-09-09T11:16:38;27.60;;;25.80;;
56285;SDS011;42191;47.562;9.686;2022-09-09T11:22:02;27.73;;;26.02;;
56285;SDS011;42191;47.562;9.686;2022-09-09T11:25:03;28.23;;;26.42;;
56285;SDS011;42191;47.562;9.686;2022-09-09T11:30:22;27.92;;;26.15;;
56285;SDS011;42191;47.562;9.686;2022-09-09T11:35:39;29.80;;;27.90;;
56285;SDS011;42191;47.562;9.686;2022-09-09T11:40:56;28.13;;;26.27;;
56285;SDS011;42191;47.562;9.686;2022-09-09T11:43:38;27.85;;;26.13;;
56285;SDS011;42191;47.562;9.686;2022-09-09T11:48:42;29.60;;;27.83;;
56285;SDS011;42191;47.562;9.686;2022-09-09T11:51:25;27.95;;;26.05;;
56285;SDS011;42191;47.562;9.686;2022-09-09T11:53:54;28.00;;;25.50;;
56285;SDS011;42191;47.562;9.686;2022-09-09T11:59:00;29.55;;;27.48;;
56285;SDS011;42191;47.562;9.686;2022-09-09T12:06:44;27.33;;;25.63;;
56285;SDS011;42191;47.562;9.686;2022-09-09T12:12:06;29.95;;;28.15;;
56285;SDS011;42191;47.562;9.686;2022-09-09T12:19:41;29.05;;;27.15;;
56285;SDS011;42191;47.562;9.686;2022-09-09T12:22:11;27.17;;;25.48;;
56285;SDS011;42191;47.562;9.686;2022-09-09T12:27:44;28.52;;;26.63;;
56285;SDS011;42191;47.562;9.686;2022-09-09T12:30:22;26.63;;;25.02;;
56285;SDS011;42191;47.562;9.686;2022-09-09T12:33:02;26.88;;;25.23;;
56285;SDS011;42191;47.562;9.686;2022-09-09T12:35:35;26.77;;;25.17;;
56285;SDS011;42191;47.562;9.686;2022-09-09T12:38:03;27.48;;;25.73;;
56285;SDS011;42191;47.562;9.686;2022-09-09T12:40:35;28.08;;;26.23;;
56285;SDS011;42191;47.562;9.686;2022-09-09T12:43:01;27.45;;;25.75;;
56285;SDS011;42191;47.562;9.686;2022-09-09T12:45:46;26.00;;;24.27;;
56285;SDS011;42191;47.562;9.686;2022-09-09T12:48:15;28.10;;;26.30;;
56285;SDS011;42191;47.562;9.686;2022-09-09T12:50:45;27.67;;;25.88;;
56285;SDS011;42191;47.562;9.686;2022-09-09T12:53:23;27.52;;;25.88;;
56285;SDS011;42191;47.562;9.686;2022-09-09T12:56:02;26.80;;;25.15;;
56285;SDS011;42191;47.562;9.686;2022-09-09T12:58:32;26.88;;;25.17;;
56285;SDS011;42191;47.562;9.686;2022-09-09T13:00:59;28.30;;;26.50;;
56285;SDS011;42191;47.562;9.686;2022-09-09T13:03:30;28.50;;;26.52;;
56285;SDS011;42191;47.562;9.686;2022-09-09T13:05:58;26.40;;;24.70;;
56285;SDS011;42191;47.562;9.686;2022-09-09T13:08:36;27.63;;;25.70;;
56285;SDS011;42191;47.562;9.686;2022-09-09T13:11:04;26.98;;;25.27;;
56285;SDS011;42191;47.562;9.686;2022-09-09T13:16:04;26.83;;;25.23;;
56285;SDS011;42191;47.562;9.686;2022-09-09T13:18:36;27.20;;;25.50;;
56285;SDS011;42191;47.562;9.686;2022-09-09T13:21:06;26.50;;;24.90;;
56285;SDS011;42191;47.562;9.686;2022-09-09T13:23:33;27.27;;;25.67;;
56285;SDS011;42191;47.562;9.686;2022-09-09T13:26:04;27.42;;;25.73;;
56285;SDS011;42191;47.562;9.686;2022-09-09T13:28:46;24.73;;;23.23;;
56285;SDS011;42191;47.562;9.686;2022-09-09T13:31:23;25.23;;;23.73;;
56285;SDS011;42191;47.562;9.686;2022-09-09T13:33:54;25.23;;;23.73;;
56285;SDS011;42191;47.562;9.686;2022-09-09T13:36:30;24.08;;;22.48;;
56285;SDS011;42191;47.562;9.686;2022-09-09T13:39:00;24.58;;;22.92;;
56285;SDS011;42191;47.562;9.686;2022-09-09T13:41:32;23.52;;;22.13;;
56285;SDS011;42191;47.562;9.686;2022-09-09T13:46:34;22.55;;;21.05;;
56285;SDS011;42191;47.562;9.686;2022-09-09T13:51:41;23.05;;;21.45;;
56285;SDS011;42191;47.562;9.686;2022-09-09T13:54:10;22.65;;;21.25;;
56285;SDS011;42191;47.562;9.686;2022-09-09T13:56:38;22.02;;;20.63;;
56285;SDS011;42191;47.562;9.686;2022-09-09T13:59:09;21.60;;;20.30;;
56285;SDS011;42191;47.562;9.686;2022-09-09T14:01:37;21.90;;;20.40;;
56285;SDS011;42191;47.562;9.686;2022-09-09T14:04:04;21.52;;;20.02;;
56285;SDS011;42191;47.562;9.686;2022-09-09T14:06:34;20.35;;;19.13;;
56285;SDS011;42191;47.562;9.686;2022-09-09T14:09:07;21.58;;;20.25;;
56285;SDS011;42191;47.562;9.686;2022-09-09T14:11:37;21.73;;;20.42;;
56285;SDS011;42191;47.562;9.686;2022-09-09T14:14:05;21.30;;;19.98;;
56285;SDS011;42191;47.562;9.686;2022-09-09T14:16:31;21.05;;;19.75;;
56285;SDS011;42191;47.562;9.686;2022-09-09T14:18:57;21.98;;;20.58;;
56285;SDS011;42191;47.562;9.686;2022-09-09T14:21:24;21.85;;;20.55;;
56285;SDS011;42191;47.562;9.686;2022-09-09T14:23:51;20.95;;;19.65;;
56285;SDS011;42191;47.562;9.686;2022-09-09T14:26:22;20.77;;;19.48;;
56285;SDS011;42191;47.562;9.686;2022-09-09T14:28:49;19.38;;;18.13;;
56285;SDS011;42191;47.562;9.686;2022-09-09T14:31:16;22.13;;;20.60;;
56285;SDS011;42191;47.562;9.686;2022-09-09T14:33:46;21.08;;;19.77;;
56285;SDS011;42191;47.562;9.686;2022-09-09T14:36:12;20.80;;;19.60;;
56285;SDS011;42191;47.562;9.686;2022-09-09T14:38:39;21.38;;;20.08;;
56285;SDS011;42191;47.562;9.686;2022-09-09T14:41:06;21.25;;;19.85;;
56285;SDS011;42191;47.562;9.686;2022-09-09T14:43:37;21.33;;;20.02;;
56285;SDS011;42191;47.562;9.686;2022-09-09T14:46:05;21.17;;;19.77;;
56285;SDS011;42191;47.562;9.686;2022-09-09T14:48:32;21.42;;;20.02;;
56285;SDS011;42191;47.562;9.686;2022-09-09T14:51:04;21.33;;;20.02;;
56285;SDS011;42191;47.562;9.686;2022-09-09T14:53:38;21.27;;;19.98;;
56285;SDS011;42191;47.562;9.686;2022-09-09T14:58:33;21.77;;;20.40;;
56285;SDS011;42191;47.562;9.686;2022-09-09T15:01:09;20.88;;;19.63;;
56285;SDS011;42191;47.562;9.686;2022-09-09T15:03:38;21.20;;;19.90;;
56285;SDS011;42191;47.562;9.686;2022-09-09T15:06:06;20.80;;;19.50;;
56285;SDS011;42191;47.562;9.686;2022-09-09T15:08:33;21.60;;;20.30;;
56285;SDS011;42191;47.562;9.686;2022-09-09T15:11:02;21.52;;;20.23;;
56285;SDS011;42191;47.562;9.686;2022-09-09T15:13:30;20.35;;;19.15;;
56285;SDS011;42191;47.562;9.686;2022-09-09T15:16:00;21.85;;;20.55;;
56285;SDS011;42191;47.562;9.686;2022-09-09T15:18:39;21.70;;;20.38;;
56285;SDS011;42191;47.562;9.686;2022-09-09T15:21:07;22.33;;;20.33;;
56285;SDS011;42191;47.562;9.686;2022-09-09T15:23:35;21.45;;;20.15;;
56285;SDS011;42191;47.562;9.686;2022-09-09T15:26:01;21.83;;;20.52;;
56285;SDS011;42191;47.562;9.686;2022-09-09T15:28:29;21.73;;;20.33;;
56285;SDS011;42191;47.562;9.686;2022-09-09T15:30:56;22.13;;;20.80;;
56285;SDS011;42191;47.562;9.686;2022-09-09T15:33:24;21.65;;;20.35;;
56285;SDS011;42191;47.562;9.686;2022-09-09T15:35:50;21.98;;;20.58;;
56285;SDS011;42191;47.562;9.686;2022-09-09T15:38:16;21.92;;;20.42;;
56285;SDS011;42191;47.562;9.686;2022-09-09T15:40:43;22.02;;;20.63;;
56285;SDS011;42191;47.562;9.686;2022-09-09T15:43:11;21.67;;;20.27;;
56285;SDS011;42191;47.562;9.686;2022-09-09T15:45:38;22.20;;;20.80;;
56285;SDS011;42191;47.562;9.686;2022-09-09T15:48:04;22.67;;;21.27;;
56285;SDS011;42191;47.562;9.686;2022-09-09T15:50:30;22.20;;;20.88;;
56285;SDS011;42191;47.562;9.686;2022-09-09T15:52:57;23.02;;;21.67;;
56285;SDS011;42191;47.562;9.686;2022-09-09T15:55:26;22.83;;;21.42;;
56285;SDS011;42191;47.562;9.686;2022-09-09T15:57:52;23.42;;;22.02;;
56285;SDS011;42191;47.562;9.686;2022-09-09T16:00:19;23.77;;;22.10;;
56285;SDS011;42191;47.562;9.686;2022-09-09T16:02:48;24.48;;;22.98;;
56285;SDS011;42191;47.562;9.686;2022-09-09T16:05:15;22.88;;;21.38;;
56285;SDS011;42191;47.562;9.686;2022-09-09T16:07:41;23.80;;;22.38;;
56285;SDS011;42191;47.562;9.686;2022-09-09T16:10:07;24.05;;;22.58;;
56285;SDS011;42191;47.562;9.686;2022-09-09T16:12:34;24.92;;;23.33;;
56285;SDS011;42191;47.562;9.686;2022-09-09T16:15:00;24.25;;;22.80;;
56285;SDS011;42191;47.562;9.686;2022-09-09T16:17:26;25.38;;;23.88;;
56285;SDS011;42191;47.562;9.686;2022-09-09T16:19:52;24.98;;;23.33;;
56285;SDS011;42191;47.562;9.686;2022-09-09T16:22:19;25.38;;;23.77;;
56285;SDS011;42191;47.562;9.686;2022-09-09T16:24:45;25.17;;;23.63;;
56285;SDS011;42191;47.562;9.686;2022-09-09T16:27:11;24.80;;;23.30;;
56285;SDS011;42191;47.562;9.686;2022-09-09T16:29:39;25.08;;;23.58;;
56285;SDS011;42191;47.562;9.686;2022-09-09T16:32:05;24.50;;;23.00;;
56285;SDS011;42191;47.562;9.686;2022-09-09T16:34:31;23.85;;;22.45;;
56285;SDS011;42191;47.562;9.686;2022-09-09T16:36:58;23.80;;;22.40;;
56285;SDS011;42191;47.562;9.686;2022-09-09T16:39:24;24.17;;;22.67;;
56285;SDS011;42191;47.562;9.686;2022-09-09T16:41:50;24.77;;;23.20;;
56285;SDS011;42191;47.562;9.686;2022-09-09T16:44:17;24.92;;;23.42;;
56285;SDS011;42191;47.562;9.686;2022-09-09T16:46:44;23.90;;;22.33;;
56285;SDS011;42191;47.562;9.686;2022-09-09T16:49:13;24.05;;;22.52;;
56285;SDS011;42191;47.562;9.686;2022-09-09T16:51:41;25.40;;;23.77;;
56285;SDS011;42191;47.562;9.686;2022-09-09T16:54:12;24.55;;;22.67;;
56285;SDS011;42191;47.562;9.686;2022-09-09T16:56:41;25.88;;;24.27;;
56285;SDS011;42191;47.562;9.686;2022-09-09T16:59:11;24.95;;;23.45;;
56285;SDS011;42191;47.562;9.686;2022-09-09T17:01:45;24.15;;;22.42;;
56285;SDS011;42191;47.562;9.686;2022-09-09T17:04:13;25.42;;;23.83;;
56285;SDS011;42191;47.562;9.686;2022-09-09T17:06:49;26.30;;;24.50;;
56285;SDS011;42191;47.562;9.686;2022-09-09T17:09:16;25.02;;;23.42;;
56285;SDS011;42191;47.562;9.686;2022-09-09T17:11:44;25.30;;;23.80;;
56285;SDS011;42191;47.562;9.686;2022-09-09T17:14:13;24.85;;;23.30;;
56285;SDS011;42191;47.562;9.686;2022-09-09T17:16:41;25.73;;;24.13;;
56285;SDS011;42191;47.562;9.686;2022-09-09T17:19:08;26.77;;;25.05;;
56285;SDS011;42191;47.562;9.686;2022-09-09T17:21:35;24.58;;;23.08;;